createdAt,value
2018-03-18T00:00:31.787Z,-1.30
2018-03-18T00:02:59.312Z,-1.30
2018-03-18T00:05:27.614Z,-1.20
2018-03-18T00:07:55.118Z,-1.30
2018-03-18T00:10:22.647Z,-1.30
2018-03-18T00:12:50.163Z,-1.40
2018-03-18T00:15:17.695Z,-1.30
2018-03-18T00:17:45.207Z,-1.30
2018-03-18T00:20:12.736Z,-1.30
2018-03-18T00:22:40.243Z,-1.30
2018-03-18T00:25:08.534Z,-1.30
2018-03-18T00:27:36.807Z,-1.40
2018-03-18T00:30:05.091Z,-1.40
2018-03-18T00:32:32.598Z,-1.40
2018-03-18T00:35:00.124Z,-1.50
2018-03-18T00:37:27.648Z,-1.50
2018-03-18T00:39:55.926Z,-1.50
2018-03-18T00:42:24.218Z,-1.50
2018-03-18T00:44:52.057Z,-1.60
2018-03-18T00:47:20.359Z,-1.60
2018-03-18T00:49:47.871Z,-1.60
2018-03-18T00:52:15.407Z,-1.50
2018-03-18T00:54:42.920Z,-1.50
2018-03-18T00:57:11.218Z,-1.50
2018-03-18T00:59:38.731Z,-1.60
2018-03-18T01:02:06.258Z,-1.50
2018-03-18T01:04:33.777Z,-1.50
2018-03-18T01:07:02.077Z,-1.50
2018-03-18T01:09:29.587Z,-1.50
2018-03-18T01:11:57.107Z,-1.50
2018-03-18T01:14:24.616Z,-1.50
2018-03-18T01:16:52.906Z,-1.50
2018-03-18T01:19:21.178Z,-1.50
2018-03-18T01:21:49.462Z,-1.40
2018-03-18T01:24:16.971Z,-1.50
2018-03-18T01:26:44.507Z,-1.50
2018-03-18T01:29:12.024Z,-1.50
2018-03-18T01:31:40.314Z,-1.60
2018-03-18T01:34:07.822Z,-1.60
2018-03-18T01:36:35.347Z,-1.60
2018-03-18T01:39:02.854Z,-1.60
2018-03-18T01:41:30.375Z,-1.60
2018-03-18T01:43:57.884Z,-1.60
2018-03-18T01:46:26.175Z,-1.60
2018-03-18T01:48:54.452Z,-1.60
2018-03-18T01:51:22.749Z,-1.70
2018-03-18T01:53:50.246Z,-1.80
2018-03-18T01:56:17.773Z,-1.80
2018-03-18T01:58:45.283Z,-1.80
2018-03-18T02:01:12.803Z,-1.90
2018-03-18T02:03:40.310Z,-1.90
2018-03-18T02:06:08.595Z,-1.90
2018-03-18T02:08:36.870Z,-1.90
2018-03-18T02:11:05.158Z,-1.90
2018-03-18T02:13:32.671Z,-1.90
2018-03-18T02:16:00.198Z,-1.90
2018-03-18T02:18:27.699Z,-2.00
2018-03-18T02:20:55.226Z,-2.10
2018-03-18T02:23:22.735Z,-2.00
2018-03-18T02:25:51.022Z,-2.10
2018-03-18T02:28:18.542Z,-2.10
2018-03-18T02:30:46.063Z,-2.10
2018-03-18T02:33:13.594Z,-2.10
2018-03-18T02:35:41.099Z,-2.10
2018-03-18T02:38:08.623Z,-2.10
2018-03-18T02:40:36.493Z,-2.20
2018-03-18T02:43:04.014Z,-2.20
2018-03-18T02:45:32.283Z,-2.10
2018-03-18T02:47:59.808Z,-2.10
2018-03-18T02:50:27.319Z,-2.10
2018-03-18T02:52:55.876Z,-2.20
2018-03-18T02:55:23.388Z,-2.20
2018-03-18T02:57:50.927Z,-2.20
2018-03-18T03:00:18.438Z,-2.10
2018-03-18T03:02:45.956Z,-2.20
2018-03-18T03:05:13.464Z,-2.20
2018-03-18T03:07:41.043Z,-2.30
2018-03-18T03:10:09.316Z,-2.30
2018-03-18T03:12:37.628Z,-2.30
2018-03-18T03:15:05.134Z,-2.30
2018-03-18T03:17:33.007Z,-2.30
2018-03-18T03:20:01.295Z,-2.30
2018-03-18T03:22:29.581Z,-2.40
2018-03-18T03:24:57.854Z,-2.40
2018-03-18T03:27:26.143Z,-2.40
2018-03-18T03:29:53.655Z,-2.40
2018-03-18T03:32:21.180Z,-2.40
2018-03-18T03:34:48.735Z,-2.50
2018-03-18T03:37:16.316Z,-2.60
2018-03-18T03:39:43.830Z,-2.50
2018-03-18T03:42:12.114Z,-2.50
2018-03-18T03:44:39.622Z,-2.60
2018-03-18T03:47:07.142Z,-2.60
2018-03-18T03:49:34.648Z,-2.60
2018-03-18T03:52:02.170Z,-2.60
2018-03-18T03:54:29.681Z,-2.50
2018-03-18T03:56:57.966Z,-2.70
2018-03-18T03:59:26.242Z,-2.70
2018-03-18T04:01:54.523Z,-2.70
2018-03-18T04:04:22.795Z,-2.70
2018-03-18T04:06:51.094Z,-2.70
2018-03-18T04:09:18.598Z,-2.70
2018-03-18T04:11:46.124Z,-2.70
2018-03-18T04:14:13.630Z,-2.80
2018-03-18T04:16:41.923Z,-2.70
2018-03-18T04:19:10.202Z,-2.70
2018-03-18T04:21:38.491Z,-2.70
2018-03-18T04:24:05.994Z,-2.70
2018-03-18T04:26:33.519Z,-2.60
2018-03-18T04:29:01.027Z,-2.60
2018-03-18T04:31:28.558Z,-2.60
2018-03-18T04:33:56.834Z,-2.60
2018-03-18T04:36:24.346Z,-2.60
2018-03-18T04:38:51.878Z,-2.60
2018-03-18T04:41:19.398Z,-2.60
2018-03-18T04:43:46.927Z,-2.60
2018-03-18T04:46:14.436Z,-2.70
2018-03-18T04:48:41.959Z,-2.70
2018-03-18T04:51:09.466Z,-2.80
2018-03-18T04:53:36.995Z,-2.80
2018-03-18T04:56:04.508Z,-2.70
2018-03-18T04:58:32.801Z,-2.70
2018-03-18T05:01:00.302Z,-2.80
2018-03-18T05:03:27.832Z,-2.80
2018-03-18T05:05:55.335Z,-2.90
2018-03-18T05:08:22.854Z,-2.90
2018-03-18T05:10:50.359Z,-2.80
2018-03-18T05:13:18.650Z,-2.90
2018-03-18T05:15:46.918Z,-2.90
2018-03-18T05:18:15.204Z,-2.90
2018-03-18T05:20:43.474Z,-3.00
2018-03-18T05:23:11.763Z,-2.80
2018-03-18T05:25:39.270Z,-2.90
2018-03-18T05:28:06.802Z,-2.80
2018-03-18T05:30:34.302Z,-2.90
2018-03-18T05:33:01.845Z,-2.90
2018-03-18T05:35:29.351Z,-2.90
2018-03-18T05:37:56.874Z,-3.00
2018-03-18T05:40:24.379Z,-3.00
2018-03-18T05:42:51.903Z,-3.10
2018-03-18T05:45:20.177Z,-3.20
2018-03-18T05:47:48.463Z,-3.20
2018-03-18T05:50:16.734Z,-3.20
2018-03-18T05:52:45.035Z,-3.10
2018-03-18T05:55:12.550Z,-3.10
2018-03-18T05:57:40.073Z,-3.10
2018-03-18T06:00:07.578Z,-3.10
2018-03-18T06:02:35.103Z,-3.20
2018-03-18T06:05:02.624Z,-3.10
2018-03-18T06:07:30.146Z,-3.20
2018-03-18T06:09:57.661Z,-3.20
2018-03-18T06:12:25.186Z,-3.20
2018-03-18T06:14:53.458Z,-3.30
2018-03-18T06:17:20.999Z,-3.30
2018-03-18T06:19:48.510Z,-3.30
2018-03-18T06:22:16.030Z,-3.30
2018-03-18T06:24:44.303Z,-3.30
2018-03-18T06:27:12.603Z,-3.40
2018-03-18T06:29:40.111Z,-3.40
2018-03-18T06:32:07.640Z,-3.30
2018-03-18T06:34:35.146Z,-3.20
2018-03-18T06:37:02.656Z,-3.20
2018-03-18T06:39:30.169Z,-3.20
2018-03-18T06:41:58.446Z,-3.10
2018-03-18T06:44:26.736Z,-3.00
2018-03-18T06:46:55.002Z,-3.20
2018-03-18T06:49:23.290Z,-3.20
2018-03-18T06:51:50.795Z,-3.20
2018-03-18T06:54:18.323Z,-3.20
2018-03-18T06:56:45.830Z,-3.10
2018-03-18T06:59:13.355Z,-3.20
2018-03-18T07:01:40.914Z,-3.10
2018-03-18T07:04:08.414Z,-3.10
2018-03-18T07:06:35.922Z,-3.10
2018-03-18T07:09:03.451Z,-3.00
2018-03-18T07:11:31.727Z,-3.00
2018-03-18T07:14:00.019Z,-3.00
2018-03-18T07:16:27.523Z,-3.00
2018-03-18T07:18:55.050Z,-3.10
2018-03-18T07:21:22.559Z,-2.90
2018-03-18T07:23:50.856Z,-2.80
2018-03-18T07:26:18.363Z,-2.80
2018-03-18T07:28:45.887Z,-2.80
2018-03-18T07:31:13.390Z,-2.70
2018-03-18T07:33:41.017Z,-2.60
2018-03-18T07:36:08.551Z,-2.80
2018-03-18T07:38:36.098Z,-2.70
2018-03-18T07:41:04.358Z,-2.70
2018-03-18T07:43:31.887Z,-2.70
2018-03-18T07:45:59.399Z,-2.50
2018-03-18T07:48:26.922Z,-2.60
2018-03-18T07:50:54.436Z,-2.60
2018-03-18T07:53:21.978Z,-2.50
2018-03-18T07:55:49.487Z,-2.40
2018-03-18T07:58:17.018Z,-2.30
2018-03-18T08:00:44.523Z,-2.40
2018-03-18T08:03:12.042Z,-2.60
2018-03-18T08:05:39.585Z,-2.60
2018-03-18T08:08:07.098Z,-2.50
2018-03-18T08:10:34.623Z,-2.40
2018-03-18T08:13:02.902Z,-2.30
2018-03-18T08:15:30.422Z,-2.30
2018-03-18T08:17:57.934Z,-2.20
2018-03-18T08:20:25.459Z,-2.20
2018-03-18T08:22:52.980Z,-2.10
2018-03-18T08:25:21.270Z,-1.90
2018-03-18T08:27:48.777Z,-1.90
2018-03-18T08:30:16.299Z,-1.90
2018-03-18T08:32:43.807Z,-1.70
2018-03-18T08:35:11.334Z,-1.60
2018-03-18T08:37:38.839Z,-1.80
2018-03-18T08:40:07.135Z,-1.40
2018-03-18T08:42:34.644Z,-1.40
2018-03-18T08:45:02.182Z,-1.50
2018-03-18T08:47:29.687Z,-1.40
2018-03-18T08:49:57.979Z,-1.40
2018-03-18T08:52:26.511Z,-1.20
2018-03-18T08:54:54.037Z,-1.30
2018-03-18T08:57:21.542Z,-1.30
2018-03-18T08:59:49.067Z,-1.40
2018-03-18T09:02:16.582Z,-1.20
2018-03-18T09:04:44.872Z,-1.00
2018-03-18T09:07:13.143Z,-0.70
2018-03-18T09:09:41.434Z,-0.90
2018-03-18T09:12:08.938Z,-1.00
2018-03-18T09:14:36.462Z,-1.10
2018-03-18T09:17:03.965Z,-1.10
2018-03-18T09:19:31.492Z,-1.20
2018-03-18T09:21:59.007Z,-1.20
2018-03-18T09:24:27.294Z,-1.40
2018-03-18T09:26:54.803Z,-1.40
2018-03-18T09:29:22.328Z,-1.70
2018-03-18T09:31:49.830Z,-1.70
2018-03-18T09:34:17.339Z,-1.70
2018-03-18T09:36:44.867Z,-1.90
2018-03-18T09:39:13.134Z,-1.70
2018-03-18T09:41:40.660Z,-1.70
2018-03-18T09:44:08.162Z,-2.00
2018-03-18T09:46:36.459Z,-1.70
2018-03-18T09:49:03.979Z,-1.80
2018-03-18T09:51:31.502Z,-1.60
2018-03-18T09:53:59.015Z,-1.70
2018-03-18T09:56:27.319Z,-1.50
2018-03-18T09:58:54.834Z,-1.50
2018-03-18T10:01:22.368Z,-1.60
2018-03-18T10:03:49.882Z,-1.60
2018-03-18T10:06:17.403Z,-1.70
2018-03-18T10:08:44.911Z,-1.70
2018-03-18T10:11:12.431Z,-1.30
2018-03-18T10:13:40.716Z,-1.60
2018-03-18T10:16:09.041Z,-1.40
2018-03-18T10:18:36.563Z,-1.50
2018-03-18T10:21:04.846Z,-1.30
2018-03-18T10:23:32.354Z,-1.30
2018-03-18T10:25:59.874Z,-1.20
2018-03-18T10:28:27.382Z,-1.20
2018-03-18T10:30:54.919Z,-1.30
2018-03-18T10:33:22.426Z,-1.60
2018-03-18T10:35:50.719Z,-1.10
2018-03-18T10:38:18.231Z,-1.10
2018-03-18T10:40:45.758Z,-0.90
2018-03-18T10:43:13.267Z,-1.20
2018-03-18T10:45:41.556Z,-1.10
2018-03-18T10:48:09.074Z,-1.10
2018-03-18T10:50:36.607Z,-1.20
2018-03-18T10:53:04.124Z,-1.30
2018-03-18T10:55:32.410Z,-1.10
2018-03-18T10:57:59.970Z,-1.10
2018-03-18T11:00:33.183Z,-1.10
2018-03-18T11:03:00.686Z,-0.80
2018-03-18T11:05:28.215Z,-0.90
2018-03-18T11:07:55.723Z,-0.90
2018-03-18T11:10:24.019Z,-0.80
2018-03-18T11:12:51.523Z,-0.80
2018-03-18T11:15:19.047Z,-0.70
2018-03-18T11:17:46.556Z,-0.50
2018-03-18T11:20:14.087Z,-0.60
2018-03-18T11:22:41.602Z,-0.60
2018-03-18T11:25:09.137Z,-0.70
2018-03-18T11:27:37.761Z,-0.90
2018-03-18T11:30:05.335Z,-0.90
2018-03-18T11:32:32.822Z,-0.80
2018-03-18T11:35:00.351Z,-0.40
2018-03-18T11:37:27.858Z,-0.30
2018-03-18T11:39:56.131Z,-0.50
2018-03-18T11:42:24.422Z,-0.40
2018-03-18T11:44:52.695Z,-0.30
2018-03-18T11:47:20.983Z,-0.30
2018-03-18T11:49:48.510Z,-0.30
2018-03-18T11:52:16.030Z,-0.10
2018-03-18T11:54:43.555Z,-0.20
2018-03-18T11:57:11.076Z,0.00
2018-03-18T11:59:38.583Z,0.20
2018-03-18T12:02:06.110Z,-0.20
2018-03-18T12:04:34.382Z,-0.10
2018-03-18T12:07:02.679Z,-0.40
2018-03-18T12:09:30.190Z,-0.40
2018-03-18T12:11:57.719Z,-0.20
2018-03-18T12:14:25.223Z,-0.10
2018-03-18T12:16:53.597Z,-0.10
2018-03-18T12:19:21.103Z,-0.20
2018-03-18T12:21:48.629Z,-0.30
2018-03-18T12:24:16.893Z,-0.30
2018-03-18T12:26:44.420Z,-0.40
2018-03-18T12:29:12.215Z,-0.40
2018-03-18T12:31:39.738Z,-0.40
2018-03-18T12:34:07.246Z,-0.30
2018-03-18T12:36:35.539Z,-0.50
2018-03-18T12:39:03.047Z,-0.60
2018-03-18T12:41:30.602Z,-0.60
2018-03-18T12:43:58.111Z,-0.80
2018-03-18T12:46:26.399Z,-0.60
2018-03-18T12:48:53.907Z,-0.60
2018-03-18T12:51:21.435Z,-0.60
2018-03-18T12:53:48.947Z,-0.60
2018-03-18T12:56:17.243Z,-0.50
2018-03-18T12:58:44.756Z,-0.50
2018-03-18T13:01:12.287Z,-0.50
2018-03-18T13:03:39.791Z,-0.60
2018-03-18T13:06:07.310Z,-0.50
2018-03-18T13:08:34.822Z,-0.40
2018-03-18T13:11:03.107Z,-0.30
2018-03-18T13:13:30.612Z,-0.20
2018-03-18T13:15:58.139Z,-0.20
2018-03-18T13:18:25.642Z,-0.30
2018-03-18T13:20:53.149Z,-0.20
2018-03-18T13:23:20.670Z,-0.20
2018-03-18T13:25:48.179Z,-0.10
2018-03-18T13:28:15.702Z,-0.40
2018-03-18T13:30:43.979Z,-1.10
2018-03-18T13:33:12.263Z,-0.70
2018-03-18T13:35:40.535Z,-0.50
2018-03-18T13:38:08.824Z,-0.80
2018-03-18T13:40:36.334Z,-0.80
2018-03-18T13:43:03.859Z,-0.80
2018-03-18T13:45:31.365Z,-0.80
2018-03-18T13:47:59.226Z,-0.80
2018-03-18T13:50:26.728Z,-1.10
2018-03-18T13:52:54.252Z,-1.10
2018-03-18T13:55:22.528Z,-0.80
2018-03-18T13:57:50.046Z,-0.80
2018-03-18T14:00:17.551Z,-0.80
2018-03-18T14:02:46.215Z,-1.00
2018-03-18T14:05:13.723Z,-1.00
2018-03-18T14:07:41.250Z,-1.00
2018-03-18T14:10:09.518Z,-1.00
2018-03-18T14:12:37.097Z,-1.00
2018-03-18T14:15:04.566Z,-0.90
2018-03-18T14:17:32.087Z,-0.60
2018-03-18T14:19:59.591Z,-0.70
2018-03-18T14:22:27.310Z,-0.80
2018-03-18T14:24:54.812Z,-0.80
2018-03-18T14:27:22.342Z,-0.90
2018-03-18T14:29:50.614Z,-1.00
2018-03-18T14:32:18.904Z,-1.20
2018-03-18T14:34:47.171Z,-1.30
2018-03-18T14:37:15.463Z,-1.50
2018-03-18T14:39:42.974Z,-1.50
2018-03-18T14:42:10.499Z,-1.30
2018-03-18T14:44:38.018Z,-1.20
2018-03-18T14:47:06.310Z,-1.60
2018-03-18T14:49:33.823Z,-1.60
2018-03-18T14:52:01.352Z,-1.50
2018-03-18T14:54:28.866Z,-1.40
2018-03-18T14:56:57.150Z,-1.40
2018-03-18T14:59:25.710Z,-1.30
2018-03-18T15:01:53.235Z,-1.30
2018-03-18T15:04:20.746Z,-1.30
2018-03-18T15:06:49.034Z,-1.30
2018-03-18T15:09:17.303Z,-1.30
2018-03-18T15:11:45.590Z,-1.30
2018-03-18T15:14:13.099Z,-1.30
2018-03-18T15:16:40.630Z,-1.50
2018-03-18T15:19:08.151Z,-1.40
2018-03-18T15:21:36.427Z,-1.30
2018-03-18T15:24:04.718Z,-1.60
2018-03-18T15:26:32.226Z,-1.60
2018-03-18T15:29:00.057Z,-1.70
2018-03-18T15:31:27.563Z,-1.80
2018-03-18T15:33:55.087Z,-1.90
2018-03-18T15:36:22.591Z,-1.90
2018-03-18T15:38:50.882Z,-2.00
2018-03-18T15:41:19.158Z,-1.80
2018-03-18T15:43:47.452Z,-1.80
2018-03-18T15:46:14.957Z,-1.80
2018-03-18T15:48:43.991Z,-1.80
2018-03-18T15:51:11.499Z,-1.80
2018-03-18T15:53:39.024Z,-1.70
2018-03-18T15:56:06.526Z,-1.70
2018-03-18T15:58:34.055Z,-1.80
2018-03-18T16:01:01.550Z,-1.80
2018-03-18T16:03:29.070Z,-2.00
2018-03-18T16:05:56.575Z,-1.90
2018-03-18T16:08:24.864Z,-2.10
2018-03-18T16:10:53.139Z,-2.00
2018-03-18T16:13:21.434Z,-2.10
2018-03-18T16:15:48.939Z,-2.10
2018-03-18T16:18:16.460Z,-2.00
2018-03-18T16:20:43.966Z,-2.10
2018-03-18T16:23:11.486Z,-2.10
2018-03-18T16:25:38.991Z,-2.20
2018-03-18T16:28:06.747Z,-2.30
2018-03-18T16:30:46.170Z,-2.20
2018-03-18T16:33:13.694Z,-2.30
2018-03-18T16:35:41.298Z,-2.30
2018-03-18T16:38:08.818Z,-2.20
2018-03-18T16:40:36.322Z,-2.20
2018-03-18T16:43:03.842Z,-2.30
2018-03-18T16:45:31.345Z,-2.20
2018-03-18T16:47:59.630Z,-2.30
2018-03-18T16:50:28.196Z,-2.30
2018-03-18T16:52:55.723Z,-2.30
2018-03-18T16:55:23.233Z,-2.20
2018-03-18T16:57:51.510Z,-2.50
2018-03-18T17:00:19.782Z,-2.50
2018-03-18T17:02:48.071Z,-2.40
2018-03-18T17:05:15.575Z,-2.40
2018-03-18T17:07:43.098Z,-2.30
2018-03-18T17:10:11.018Z,-2.40
2018-03-18T17:12:38.541Z,-2.50
2018-03-18T17:15:06.050Z,-2.60
2018-03-18T17:17:34.343Z,-2.50
2018-03-18T17:20:01.854Z,-2.50
2018-03-18T17:22:30.452Z,-2.60
2018-03-18T17:24:57.974Z,-2.60
2018-03-18T17:27:25.475Z,-2.60
2018-03-18T17:29:52.995Z,-2.50
2018-03-18T17:32:20.507Z,-2.70
2018-03-18T17:34:49.175Z,-2.80
2018-03-18T17:37:16.687Z,-2.80
2018-03-18T17:39:44.218Z,-2.70
2018-03-18T17:42:12.487Z,-2.90
2018-03-18T17:44:52.647Z,-2.90
2018-03-18T17:47:31.994Z,-2.90
2018-03-18T17:50:11.494Z,-2.80
2018-03-18T17:52:50.738Z,-2.90
2018-03-18T17:55:31.400Z,-2.70
2018-03-18T17:57:59.675Z,-2.70
2018-03-18T18:00:27.202Z,-2.80
2018-03-18T18:02:54.707Z,-2.80
2018-03-18T18:05:23.003Z,-2.90
2018-03-18T18:07:50.510Z,-2.90
2018-03-18T18:10:18.325Z,-2.80
2018-03-18T18:12:46.575Z,-2.80
2018-03-18T18:15:14.862Z,-2.70
2018-03-18T18:17:43.131Z,-2.80
2018-03-18T18:20:11.414Z,-2.80
2018-03-18T18:22:39.683Z,-3.00
2018-03-18T18:25:07.970Z,-2.90
2018-03-18T18:27:36.238Z,-2.90
2018-03-18T18:30:04.524Z,-2.90
2018-03-18T18:32:32.039Z,-2.90
2018-03-18T18:34:59.563Z,-3.00
2018-03-18T18:37:27.071Z,-3.00
2018-03-18T18:39:54.590Z,-3.00
2018-03-18T18:42:22.098Z,-3.00
2018-03-18T18:44:50.389Z,-3.10
2018-03-18T18:47:17.899Z,-3.10
2018-03-18T18:49:46.190Z,-3.10
2018-03-18T18:52:13.695Z,-3.10
2018-03-18T18:54:41.210Z,-3.00
2018-03-18T18:57:08.718Z,-3.00
2018-03-18T18:59:36.237Z,-3.00
2018-03-18T19:02:04.510Z,-2.90
2018-03-18T19:04:32.799Z,-2.90
2018-03-18T19:07:01.071Z,-3.00
2018-03-18T19:09:29.359Z,-3.00
2018-03-18T19:11:56.875Z,-3.00
2018-03-18T19:14:24.402Z,-3.10
2018-03-18T19:16:51.906Z,-3.20
2018-03-18T19:19:19.428Z,-3.10
2018-03-18T19:21:46.935Z,-3.10
2018-03-18T19:24:15.223Z,-3.30
2018-03-18T19:26:43.502Z,-3.30
2018-03-18T19:29:11.012Z,-3.30
2018-03-18T19:31:38.541Z,-3.20
2018-03-18T19:34:06.047Z,-3.20
2018-03-18T19:36:33.570Z,-3.20
2018-03-18T19:39:01.075Z,-3.30
2018-03-18T19:41:29.364Z,-3.20
2018-03-18T19:43:57.625Z,-3.20
2018-03-18T19:46:25.918Z,-3.40
2018-03-18T19:48:54.190Z,-3.40
2018-03-18T19:51:22.478Z,-3.40
2018-03-18T19:53:49.990Z,-3.40
2018-03-18T19:56:17.510Z,-3.30
2018-03-18T19:58:45.019Z,-3.30
2018-03-18T20:01:12.555Z,-3.30
2018-03-18T20:03:40.069Z,-3.40
2018-03-18T20:06:07.598Z,-3.40
2018-03-18T20:08:35.104Z,-3.50
2018-03-18T20:11:02.631Z,-3.40
2018-03-18T20:13:30.912Z,-3.40
2018-03-18T20:15:58.436Z,-3.40
2018-03-18T20:18:25.942Z,-3.40
2018-03-18T20:20:53.458Z,-3.50
2018-03-18T20:23:20.958Z,-3.60
2018-03-18T20:25:48.480Z,-3.60
2018-03-18T20:28:15.987Z,-3.60
2018-03-18T20:30:43.520Z,-3.60
2018-03-18T20:33:11.035Z,-3.60
2018-03-18T20:35:38.810Z,-3.60
2018-03-18T20:38:06.321Z,-3.60
2018-03-18T20:40:33.846Z,-3.60
2018-03-18T20:43:02.152Z,-3.70
2018-03-18T20:45:29.682Z,-3.60
2018-03-18T20:47:57.954Z,-3.60
2018-03-18T20:50:26.538Z,-3.60
2018-03-18T20:52:54.459Z,-3.60
2018-03-18T20:55:23.208Z,-3.70
2018-03-18T20:57:50.988Z,-3.70
2018-03-18T21:00:18.567Z,-3.70
2018-03-18T21:02:46.146Z,-3.60
2018-03-18T21:05:13.821Z,-3.60
2018-03-18T21:07:41.494Z,-3.60
2018-03-18T21:10:10.175Z,-3.70
2018-03-18T21:12:37.721Z,-3.70
2018-03-18T21:15:05.251Z,-3.70
2018-03-18T21:17:32.768Z,-3.70
2018-03-18T21:20:01.103Z,-3.70
2018-03-18T21:22:29.347Z,-3.70
2018-03-18T21:24:56.866Z,-3.70
2018-03-18T21:27:25.143Z,-3.70
2018-03-18T21:29:53.446Z,-3.70
2018-03-18T21:32:20.946Z,-3.70
2018-03-18T21:34:48.462Z,-3.60
2018-03-18T21:37:15.986Z,-3.70
2018-03-18T21:39:43.494Z,-3.70
2018-03-18T21:42:11.015Z,-3.70
2018-03-18T21:44:39.290Z,-3.70
2018-03-18T21:47:07.583Z,-3.60
2018-03-18T21:49:35.094Z,-3.70
2018-03-18T21:52:02.616Z,-3.60
2018-03-18T21:54:30.122Z,-3.70
2018-03-18T21:56:57.650Z,-3.70
2018-03-18T21:59:25.167Z,-3.70
2018-03-18T22:01:53.455Z,-3.70
2018-03-18T22:04:20.965Z,-3.70
2018-03-18T22:06:48.487Z,-3.70
2018-03-18T22:09:15.999Z,-3.70
2018-03-18T22:11:43.527Z,-3.80
2018-03-18T22:14:11.034Z,-3.80
2018-03-18T22:16:39.326Z,-3.80
2018-03-18T22:19:06.835Z,-3.80
2018-03-18T22:21:34.362Z,-3.80
2018-03-18T22:24:01.863Z,-3.80
2018-03-18T22:26:29.387Z,-3.80
2018-03-18T22:28:57.685Z,-3.70
2018-03-18T22:31:25.213Z,-3.70
2018-03-18T22:33:52.730Z,-3.70
2018-03-18T22:36:21.025Z,-3.80
2018-03-18T22:38:48.549Z,-3.80
2018-03-18T22:41:16.071Z,-3.80
2018-03-18T22:43:43.579Z,-3.80
2018-03-18T22:46:11.863Z,-3.80
2018-03-18T22:48:40.134Z,-3.90
2018-03-18T22:51:08.427Z,-3.90
2018-03-18T22:53:35.938Z,-3.90
2018-03-18T22:56:03.458Z,-3.90
2018-03-18T22:58:30.967Z,-3.90
2018-03-18T23:00:59.258Z,-3.90
2018-03-18T23:03:27.534Z,-3.80
2018-03-18T23:05:55.823Z,-3.80
2018-03-18T23:08:23.335Z,-3.80
2018-03-18T23:10:50.860Z,-3.90
2018-03-18T23:13:18.371Z,-3.90
2018-03-18T23:15:45.892Z,-3.90
2018-03-18T23:18:13.432Z,-4.00
2018-03-18T23:20:40.955Z,-4.00
2018-03-18T23:23:09.235Z,-4.00
2018-03-18T23:25:37.527Z,-4.00
2018-03-18T23:28:05.038Z,-4.00
2018-03-18T23:30:33.327Z,-4.00
2018-03-18T23:33:00.836Z,-4.00
2018-03-18T23:35:28.338Z,-4.00
2018-03-18T23:37:55.862Z,-4.00
2018-03-18T23:40:23.371Z,-4.00
2018-03-18T23:42:51.662Z,-3.90
2018-03-18T23:45:19.934Z,-4.00
2018-03-18T23:47:48.218Z,-3.90
2018-03-18T23:50:15.726Z,-4.00
2018-03-18T23:52:43.252Z,-4.00
2018-03-18T23:55:10.758Z,-4.10
2018-03-18T23:57:38.279Z,-4.10
